Time;durP1;ratioP1;P1;durP2;ratioP2;P2;SDS_P1;SDS_P2;PMS_P1;PMS_P2;Temp;Humidity;BMP_temperature;BMP_pressure;BME280_temperature;BME280_humidity;BME280_pressure;Samples;Min_cycle;Max_cycle;Signal;HPM_P1;HPM_P2
2023/11/05 00:00:48;;;;;;;13.27;1.00;;;9.60;99.90;;;;;;5050785;28;20029;-72
2023/11/05 00:03:14;;;;;;;12.73;0.80;;;9.60;99.90;;;;;;5049115;28;20036;-72
2023/11/05 00:05:40;;;;;;;8.93;0.80;;;9.70;99.90;;;;;;5052600;28;20021;-72
2023/11/05 00:08:06;;;;;;;10.27;1.63;;;9.70;99.90;;;;;;5045401;28;20078;-72
2023/11/05 00:10:31;;;;;;;13.73;0.82;;;9.70;99.90;;;;;;5050508;28;20045;-72
2023/11/05 00:12:57;;;;;;;10.80;1.40;;;9.80;99.90;;;;;;5046562;28;20385;-71
2023/11/05 00:15:22;;;;;;;8.95;1.10;;;9.80;99.90;;;;;;5047781;28;20484;-72
2023/11/05 00:17:48;;;;;;;10.73;1.15;;;9.80;99.90;;;;;;5051152;28;20493;-71
2023/11/05 00:20:14;;;;;;;10.93;0.93;;;9.90;99.90;;;;;;5052666;28;20075;-72
2023/11/05 00:22:40;;;;;;;11.77;0.90;;;9.90;99.90;;;;;;5049337;28;20075;-72
2023/11/05 00:25:06;;;;;;;9.02;1.15;;;9.90;99.90;;;;;;5048111;28;20423;-71
2023/11/05 00:27:31;;;;;;;12.95;0.98;;;10.00;99.90;;;;;;5049237;28;20025;-71
2023/11/05 00:30:00;;;;;;;8.55;0.98;;;9.90;99.90;;;;;;5048412;28;20912;-72
2023/11/05 00:32:30;;;;;;;8.05;1.23;;;9.90;99.90;;;;;;5048939;28;20016;-73
2023/11/05 00:35:06;;;;;;;13.45;0.95;;;9.80;99.90;;;;;;5044207;28;20049;-73
2023/11/05 00:37:32;;;;;;;13.43;1.02;;;9.80;99.90;;;;;;5046947;28;20492;-70
2023/11/05 00:39:58;;;;;;;11.27;0.85;;;9.70;99.90;;;;;;5048169;28;20082;-70
2023/11/05 00:42:24;;;;;;;12.60;1.17;;;9.70;99.90;;;;;;5047515;28;20066;-71
2023/11/05 00:44:49;;;;;;;8.23;0.80;;;9.60;99.90;;;;;;5049584;28;20365;-71
2023/11/05 00:47:15;;;;;;;13.82;1.00;;;9.70;99.90;;;;;;5048539;28;20435;-71
2023/11/05 00:49:41;;;;;;;7.88;0.63;;;9.70;99.90;;;;;;5049135;28;20105;-71
2023/11/05 00:52:06;;;;;;;11.55;1.35;;;9.60;99.90;;;;;;5051050;28;20025;-71
2023/11/05 00:54:32;;;;;;;7.82;0.82;;;9.70;99.90;;;;;;5050884;28;20025;-71
2023/11/05 00:56:57;;;;;;;12.95;0.80;;;9.70;99.90;;;;;;5047081;28;20413;-70
2023/11/05 00:59:23;;;;;;;5.72;0.65;;;9.70;99.90;;;;;;5050581;28;20499;-71
2023/11/05 01:01:48;;;;;;;10.82;0.90;;;9.70;99.90;;;;;;5049340;28;20103;-71
2023/11/05 01:04:14;;;;;;;12.60;0.90;;;9.80;99.90;;;;;;5045154;28;20466;-71
2023/11/05 01:06:40;;;;;;;6.80;0.80;;;9.70;99.90;;;;;;5049562;28;20048;-71
2023/11/05 01:09:05;;;;;;;9.98;0.77;;;9.70;99.90;;;;;;5045958;28;20051;-71
2023/11/05 01:11:31;;;;;;;11.48;2.22;;;9.70;99.90;;;;;;5046368;28;20071;-71
2023/11/05 01:13:57;;;;;;;15.40;0.85;;;9.80;99.90;;;;;;5075051;28;20515;-71
2023/11/05 01:16:23;;;;;;;10.40;0.68;;;9.80;99.90;;;;;;5046674;28;20497;-71
2023/11/05 01:18:49;;;;;;;10.85;0.82;;;9.80;99.90;;;;;;5044538;28;20017;-71
2023/11/05 01:21:14;;;;;;;10.38;0.82;;;9.80;99.90;;;;;;5047872;28;20024;-71
2023/11/05 01:23:40;;;;;;;11.02;0.80;;;9.80;99.90;;;;;;5048586;28;20063;-71
2023/11/05 01:26:05;;;;;;;10.00;0.65;;;9.80;99.90;;;;;;5048556;28;20098;-71
2023/11/05 01:28:31;;;;;;;12.68;1.05;;;9.90;99.90;;;;;;5045405;28;20041;-71
2023/11/05 01:30:56;;;;;;;11.27;1.00;;;9.90;99.90;;;;;;5046894;28;20071;-71
2023/11/05 01:33:22;;;;;;;12.85;1.40;;;9.90;99.90;;;;;;5048052;28;20056;-71
2023/11/05 01:35:48;;;;;;;7.22;0.70;;;9.90;99.90;;;;;;5048828;28;20095;-70
2023/11/05 01:38:13;;;;;;;12.93;0.60;;;10.00;99.90;;;;;;5046685;28;20032;-71
2023/11/05 01:40:41;;;;;;;6.13;0.63;;;10.00;99.90;;;;;;5049830;28;20017;-71
2023/11/05 01:43:07;;;;;;;9.23;0.85;;;10.00;99.90;;;;;;5051173;28;20028;-71
2023/11/05 01:45:32;;;;;;;9.52;0.68;;;10.00;99.90;;;;;;5049538;28;20025;-71
2023/11/05 01:47:58;;;;;;;14.32;0.85;;;10.00;99.90;;;;;;5047151;28;20370;-71
2023/11/05 01:50:24;;;;;;;11.93;0.77;;;10.00;99.90;;;;;;5048667;28;20025;-71
2023/11/05 01:52:54;;;;;;;12.10;1.20;;;10.00;99.90;;;;;;5049466;28;20490;-71
2023/11/05 01:55:21;;;;;;;9.82;0.65;;;10.00;99.90;;;;;;5042119;28;20123;-71
2023/11/05 01:57:47;;;;;;;8.13;1.08;;;10.00;99.90;;;;;;5049933;28;20044;-71
2023/11/05 02:00:13;;;;;;;7.05;0.95;;;10.00;99.90;;;;;;5047245;28;20021;-71
2023/11/05 02:02:40;;;;;;;11.25;0.68;;;10.00;99.90;;;;;;5044041;28;20112;-71
2023/11/05 02:05:08;;;;;;;13.88;1.30;;;10.00;99.90;;;;;;5044152;28;20026;-72
2023/11/05 02:07:34;;;;;;;8.65;0.77;;;10.10;99.90;;;;;;5047302;28;20048;-72
2023/11/05 02:09:59;;;;;;;6.15;0.63;;;10.00;99.90;;;;;;5040788;28;20485;-71
2023/11/05 02:12:28;;;;;;;7.05;0.60;;;10.00;99.90;;;;;;5046064;28;20033;-71
2023/11/05 02:14:54;;;;;;;8.27;0.80;;;10.00;99.90;;;;;;5054230;28;20021;-71
2023/11/05 02:17:21;;;;;;;8.70;0.70;;;10.00;99.90;;;;;;5047112;28;20036;-71
2023/11/05 02:19:47;;;;;;;9.25;0.60;;;9.90;99.90;;;;;;5048450;28;20424;-71
2023/11/05 02:22:15;;;;;;;9.05;0.90;;;10.00;99.90;;;;;;5047673;28;20072;-71
2023/11/05 02:24:47;;;;;;;8.13;0.47;;;9.90;99.90;;;;;;5045940;28;20024;-71
2023/11/05 02:27:13;;;;;;;6.32;0.70;;;10.00;99.90;;;;;;5046689;28;20043;-71
2023/11/05 02:29:39;;;;;;;11.73;0.70;;;9.90;99.90;;;;;;5045847;28;20033;-71
2023/11/05 02:32:06;;;;;;;4.72;0.70;;;9.90;99.90;;;;;;5047223;28;20029;-71
2023/11/05 02:34:32;;;;;;;8.75;0.70;;;9.90;99.90;;;;;;5046127;28;20029;-72
2023/11/05 02:36:58;;;;;;;7.53;0.55;;;9.90;99.90;;;;;;5045336;28;20045;-71
2023/11/05 02:39:25;;;;;;;5.15;0.70;;;9.90;99.90;;;;;;5045796;28;20021;-72
2023/11/05 02:41:52;;;;;;;11.20;0.60;;;9.90;99.90;;;;;;5046801;28;20721;-71
2023/11/05 02:44:18;;;;;;;6.07;0.50;;;9.90;99.90;;;;;;5049901;28;20033;-71
2023/11/05 02:46:43;;;;;;;6.65;0.75;;;9.90;99.90;;;;;;5045678;28;20033;-72
2023/11/05 02:49:09;;;;;;;9.57;0.93;;;9.80;99.90;;;;;;5049555;28;20031;-71
2023/11/05 02:51:35;;;;;;;8.02;0.55;;;9.80;99.90;;;;;;5052924;28;20021;-71
2023/11/05 02:54:01;;;;;;;6.13;0.70;;;9.80;99.90;;;;;;5049570;28;20060;-72
2023/11/05 02:56:27;;;;;;;8.40;0.70;;;9.80;99.90;;;;;;5047644;28;20074;-72
2023/11/05 02:58:52;;;;;;;12.27;0.65;;;9.80;99.90;;;;;;5052526;28;20025;-72
2023/11/05 03:01:27;;;;;;;8.15;0.93;;;9.80;99.90;;;;;;5050249;28;20029;-72
2023/11/05 03:03:53;;;;;;;8.13;0.50;;;9.90;99.90;;;;;;5052623;28;20059;-71
2023/11/05 03:06:19;;;;;;;7.13;0.50;;;9.80;99.90;;;;;;5053072;28;20045;-71
2023/11/05 03:08:45;;;;;;;8.48;0.70;;;9.80;99.90;;;;;;5052501;28;20078;-72
2023/11/05 03:11:11;;;;;;;7.10;0.65;;;9.80;99.90;;;;;;5049965;28;20408;-72
2023/11/05 03:13:37;;;;;;;8.93;1.27;;;9.80;99.90;;;;;;5050482;28;20036;-71
2023/11/05 03:16:03;;;;;;;9.05;1.52;;;9.80;99.90;;;;;;5053653;28;20037;-72
2023/11/05 03:18:29;;;;;;;5.20;0.60;;;9.80;99.90;;;;;;5046750;28;20028;-72
2023/11/05 03:20:55;;;;;;;9.75;0.57;;;9.80;99.90;;;;;;5051026;28;20025;-71
2023/11/05 03:23:23;;;;;;;6.82;0.40;;;9.80;99.90;;;;;;5047275;28;20025;-70
2023/11/05 03:25:49;;;;;;;6.22;0.40;;;9.80;99.90;;;;;;5051512;28;20037;-71
2023/11/05 03:28:14;;;;;;;6.30;0.80;;;9.80;99.90;;;;;;5051537;28;20408;-71
2023/11/05 03:30:40;;;;;;;8.70;0.57;;;9.80;99.90;;;;;;5051546;28;20526;-70
2023/11/05 03:33:06;;;;;;;8.65;0.60;;;9.80;99.90;;;;;;5050776;28;20025;-70
2023/11/05 03:35:32;;;;;;;4.28;0.40;;;9.80;99.90;;;;;;5051574;28;20095;-71
2023/11/05 03:37:58;;;;;;;5.47;0.40;;;9.80;99.90;;;;;;5051177;28;20473;-70
2023/11/05 03:40:23;;;;;;;6.53;0.60;;;9.80;99.90;;;;;;5053480;28;20017;-70
2023/11/05 03:42:52;;;;;;;4.15;0.40;;;9.80;99.90;;;;;;5051427;28;20025;-70
2023/11/05 03:45:18;;;;;;;6.43;0.35;;;9.80;99.90;;;;;;5049515;28;20028;-71
2023/11/05 03:47:45;;;;;;;8.02;0.50;;;9.80;99.90;;;;;;5052004;28;20029;-70
2023/11/05 03:50:11;;;;;;;7.50;0.57;;;9.90;99.90;;;;;;5055735;28;20037;-71
2023/11/05 03:52:38;;;;;;;3.45;0.30;;;9.80;99.90;;;;;;5052267;28;20028;-70
2023/11/05 03:55:03;;;;;;;5.40;0.45;;;9.90;99.90;;;;;;5047277;28;20033;-70
2023/11/05 03:57:29;;;;;;;3.85;0.50;;;9.80;99.90;;;;;;5052239;28;20082;-70
2023/11/05 03:59:54;;;;;;;5.15;0.52;;;9.90;99.90;;;;;;5053013;28;20384;-70
2023/11/05 04:02:23;;;;;;;8.82;0.60;;;9.80;99.90;;;;;;5054936;28;20036;-71
2023/11/05 04:04:51;;;;;;;2.25;0.50;;;9.80;99.90;;;;;;5053344;28;20041;-71
2023/11/05 04:17:46;;;;;;;5.32;0.50;;;9.80;99.90;;;;;;5084341;28;20081;-73
2023/11/05 04:20:12;;;;;;;7.80;0.40;;;9.80;99.90;;;;;;5093581;28;20028;-72
2023/11/05 04:22:37;;;;;;;5.22;0.60;;;9.80;99.90;;;;;;5063016;28;20058;-71
2023/11/05 04:25:03;;;;;;;5.97;0.57;;;9.80;99.90;;;;;;5052100;28;20021;-71
2023/11/05 04:27:29;;;;;;;5.43;0.50;;;9.90;99.90;;;;;;5082716;28;20063;-71
2023/11/05 04:29:54;;;;;;;4.90;0.40;;;9.90;99.90;;;;;;5078054;28;20039;-71
2023/11/05 04:32:20;;;;;;;8.15;0.60;;;9.90;99.90;;;;;;5063298;28;20070;-71
2023/11/05 04:34:45;;;;;;;2.72;0.40;;;9.90;99.90;;;;;;5052412;28;20103;-71
2023/11/05 04:37:12;;;;;;;4.65;0.45;;;9.90;99.90;;;;;;5059877;28;20032;-71
2023/11/05 04:39:41;;;;;;;3.90;0.77;;;10.00;99.90;;;;;;5092388;28;20020;-71
2023/11/05 04:42:09;;;;;;;4.40;0.30;;;10.00;99.90;;;;;;5066910;28;20031;-71
2023/11/05 04:44:37;;;;;;;5.18;0.50;;;10.00;99.90;;;;;;5056895;28;20074;-71
2023/11/05 04:47:03;;;;;;;6.82;0.70;;;10.00;99.90;;;;;;5056939;28;20068;-71
2023/11/05 04:49:29;;;;;;;3.50;0.52;;;10.10;99.90;;;;;;5078520;28;20025;-71
2023/11/05 04:51:54;;;;;;;4.05;0.40;;;10.10;99.90;;;;;;5067199;28;20039;-71
2023/11/05 04:54:20;;;;;;;4.60;0.32;;;10.10;99.90;;;;;;5060355;28;20124;-71
2023/11/05 04:56:46;;;;;;;6.65;0.73;;;10.10;99.90;;;;;;5035271;28;20518;-71
2023/11/05 04:59:11;;;;;;;5.82;0.50;;;10.10;99.90;;;;;;5064217;28;20016;-71
2023/11/05 05:01:37;;;;;;;6.47;0.95;;;10.20;99.90;;;;;;5032701;28;20025;-71
2023/11/05 05:04:05;;;;;;;4.53;0.60;;;10.20;99.90;;;;;;5053192;28;20024;-71
2023/11/05 05:06:31;;;;;;;6.22;0.70;;;10.20;99.90;;;;;;5071504;28;20499;-71
2023/11/05 05:08:56;;;;;;;7.38;0.60;;;10.20;99.90;;;;;;5085684;28;20039;-71
2023/11/05 05:11:22;;;;;;;5.10;0.70;;;10.20;99.90;;;;;;5071309;28;20669;-71
2023/11/05 05:13:48;;;;;;;3.80;0.40;;;10.20;99.90;;;;;;5056648;28;20060;-71
2023/11/05 05:16:20;;;;;;;3.92;0.65;;;10.20;99.90;;;;;;5053408;28;20047;-71
2023/11/05 05:18:45;;;;;;;4.03;0.60;;;10.10;99.90;;;;;;5072783;28;20381;-71
2023/11/05 05:21:13;;;;;;;5.45;0.50;;;10.10;99.90;;;;;;5051291;28;20039;-71
2023/11/05 05:23:38;;;;;;;3.60;0.50;;;10.00;99.90;;;;;;5077593;28;20044;-71
2023/11/05 05:26:04;;;;;;;4.57;0.60;;;10.10;99.90;;;;;;5052440;28;20035;-71
2023/11/05 05:28:30;;;;;;;7.18;0.57;;;10.10;99.90;;;;;;5067146;28;20069;-71
2023/11/05 05:30:56;;;;;;;6.57;0.70;;;10.10;99.90;;;;;;5065594;28;20431;-71
2023/11/05 05:33:22;;;;;;;5.13;0.50;;;10.10;99.90;;;;;;5075254;28;20649;-72
2023/11/05 05:35:48;;;;;;;4.63;0.60;;;10.10;99.90;;;;;;5077047;28;20028;-73
2023/11/05 05:38:14;;;;;;;3.53;0.50;;;10.10;99.90;;;;;;5062736;28;20782;-72
2023/11/05 05:40:39;;;;;;;4.15;0.60;;;10.20;99.90;;;;;;5063122;28;20376;-72
2023/11/05 05:43:06;;;;;;;4.00;0.40;;;10.20;99.90;;;;;;5081881;28;20028;-71
2023/11/05 05:45:31;;;;;;;2.92;0.55;;;10.10;99.90;;;;;;5076648;28;20059;-72
2023/11/05 05:47:57;;;;;;;4.95;0.50;;;10.10;99.90;;;;;;5082075;28;20083;-72
2023/11/05 05:50:23;;;;;;;4.60;0.60;;;10.10;99.90;;;;;;5068183;28;20103;-72
2023/11/05 05:52:48;;;;;;;4.63;0.65;;;10.10;99.90;;;;;;5077762;28;20107;-72
2023/11/05 05:55:15;;;;;;;4.13;0.75;;;10.10;99.90;;;;;;5066797;28;20481;-71
2023/11/05 05:57:41;;;;;;;5.47;0.68;;;10.10;99.90;;;;;;5076438;28;20048;-72
2023/11/05 06:00:09;;;;;;;4.88;0.68;;;10.10;99.90;;;;;;5061161;28;20024;-70
2023/11/05 06:02:35;;;;;;;5.57;0.60;;;10.10;99.90;;;;;;5079970;28;20390;-71
2023/11/05 06:05:01;;;;;;;4.53;1.02;;;10.10;99.90;;;;;;5072333;28;20480;-70
2023/11/05 06:07:31;;;;;;;3.95;0.40;;;10.10;99.90;;;;;;5076804;28;20514;-71
2023/11/05 06:09:57;;;;;;;4.90;0.60;;;10.10;99.90;;;;;;5081229;28;20772;-70
2023/11/05 06:12:23;;;;;;;4.10;0.50;;;10.20;99.90;;;;;;5081639;28;20111;-71
2023/11/05 06:14:49;;;;;;;5.07;0.50;;;10.20;99.90;;;;;;5080593;28;20115;-71
2023/11/05 06:17:14;;;;;;;8.27;0.65;;;10.20;99.90;;;;;;5061177;28;20443;-71
2023/11/05 06:19:40;;;;;;;3.30;0.50;;;10.20;99.90;;;;;;5069388;28;20461;-70
2023/11/05 06:22:05;;;;;;;5.30;0.70;;;10.20;99.90;;;;;;5086722;28;20036;-71
2023/11/05 06:24:31;;;;;;;7.13;0.73;;;10.20;99.90;;;;;;5067989;28;20373;-72
2023/11/05 06:26:56;;;;;;;5.03;0.70;;;10.20;99.90;;;;;;5085315;28;20035;-71
2023/11/05 06:29:22;;;;;;;5.93;0.80;;;10.30;99.90;;;;;;5085564;28;20020;-72
2023/11/05 06:31:48;;;;;;;4.80;0.60;;;10.30;99.90;;;;;;5072071;28;20028;-71
2023/11/05 06:34:13;;;;;;;6.40;0.60;;;10.30;99.90;;;;;;5073554;28;20063;-71
2023/11/05 06:36:59;;;;;;;7.32;0.60;;;10.30;99.90;;;;;;5066004;28;20044;-71
2023/11/05 06:39:27;;;;;;;4.03;0.60;;;10.30;99.90;;;;;;5063769;28;20033;-72
2023/11/05 06:41:55;;;;;;;5.68;0.63;;;10.20;99.90;;;;;;5053095;28;20055;-72
2023/11/05 06:44:21;;;;;;;3.65;0.70;;;10.20;99.90;;;;;;5067514;28;20504;-72
2023/11/05 06:46:47;;;;;;;3.67;1.00;;;10.20;99.90;;;;;;5081629;28;20043;-71
2023/11/05 06:49:13;;;;;;;5.43;0.50;;;10.30;99.90;;;;;;5077492;28;20033;-72
2023/11/05 06:51:41;;;;;;;3.25;0.50;;;10.20;99.90;;;;;;5095026;28;20049;-72
2023/11/05 06:54:13;;;;;;;2.75;0.40;;;10.20;99.90;;;;;;5089259;28;20506;-72
2023/11/05 06:56:39;;;;;;;6.30;0.60;;;10.30;99.90;;;;;;5079374;28;20065;-72
2023/11/05 06:59:05;;;;;;;6.60;1.02;;;10.30;99.90;;;;;;5084186;28;20024;-72
2023/11/05 07:01:31;;;;;;;5.25;0.98;;;10.30;99.90;;;;;;5081238;28;20519;-72
2023/11/05 07:03:57;;;;;;;2.05;0.60;;;10.30;99.90;;;;;;5078921;28;20031;-72
2023/11/05 07:06:23;;;;;;;4.32;0.60;;;10.30;99.90;;;;;;5085390;28;20414;-73
2023/11/05 07:08:48;;;;;;;6.00;0.70;;;10.30;99.90;;;;;;5073547;28;20025;-71
2023/11/05 07:11:15;;;;;;;6.05;0.60;;;10.30;99.90;;;;;;5089278;28;20089;-71
2023/11/05 07:13:41;;;;;;;5.65;0.60;;;10.30;99.90;;;;;;5085939;28;20114;-70
2023/11/05 07:16:07;;;;;;;5.93;1.00;;;10.40;99.90;;;;;;5069168;28;20194;-70
2023/11/05 07:18:33;;;;;;;5.43;0.70;;;10.40;99.90;;;;;;5082536;28;20032;-70
2023/11/05 07:21:00;;;;;;;3.47;0.85;;;10.40;99.90;;;;;;5055506;28;20036;-69
2023/11/05 07:23:25;;;;;;;7.68;0.75;;;10.40;99.90;;;;;;5074946;28;20067;-70
2023/11/05 07:25:51;;;;;;;6.45;0.70;;;10.50;99.90;;;;;;5073406;28;20024;-69
2023/11/05 07:28:17;;;;;;;4.63;0.77;;;10.50;99.90;;;;;;5063153;28;20106;-69
2023/11/05 07:30:42;;;;;;;7.72;0.82;;;10.50;99.90;;;;;;5069247;28;20054;-70
2023/11/05 07:33:10;;;;;;;8.93;0.90;;;10.50;99.90;;;;;;5084993;28;20107;-70
2023/11/05 07:35:36;;;;;;;6.97;0.80;;;10.60;99.90;;;;;;5092895;28;20459;-69
2023/11/05 07:38:02;;;;;;;5.05;0.70;;;10.60;99.90;;;;;;5078398;28;20037;-69
2023/11/05 07:40:27;;;;;;;5.07;1.17;;;10.60;99.90;;;;;;5079415;28;20035;-69
2023/11/05 07:42:53;;;;;;;5.85;0.98;;;10.60;99.90;;;;;;5086775;28;20036;-69
2023/11/05 07:45:19;;;;;;;6.68;0.80;;;10.70;99.90;;;;;;5073853;28;20079;-69
2023/11/05 07:47:45;;;;;;;7.68;0.90;;;10.80;99.90;;;;;;5073369;28;20064;-69
2023/11/05 07:50:12;;;;;;;4.63;0.65;;;10.80;99.90;;;;;;5089318;28;20024;-69
2023/11/05 07:52:40;;;;;;;5.90;1.00;;;10.80;99.90;;;;;;5084475;28;20028;-69
2023/11/05 07:55:07;;;;;;;6.07;0.70;;;10.80;99.90;;;;;;5078833;28;20025;-69
2023/11/05 07:57:36;;;;;;;5.32;0.80;;;10.90;99.90;;;;;;5068357;28;20040;-69
2023/11/05 08:00:03;;;;;;;6.00;1.00;;;10.90;99.90;;;;;;5072492;28;20095;-69
2023/11/05 08:02:29;;;;;;;5.93;1.02;;;10.90;99.90;;;;;;5079549;28;20029;-69
2023/11/05 08:04:56;;;;;;;6.05;0.90;;;10.90;99.90;;;;;;5079618;28;20024;-69
2023/11/05 08:07:23;;;;;;;5.05;1.00;;;10.90;99.90;;;;;;5080284;28;20049;-71
2023/11/05 08:09:49;;;;;;;4.90;0.82;;;10.90;99.90;;;;;;5070802;28;20418;-70
2023/11/05 08:12:15;;;;;;;5.47;0.73;;;11.00;99.90;;;;;;5082306;28;20578;-71
2023/11/05 08:14:40;;;;;;;4.05;0.68;;;11.00;99.90;;;;;;5086900;28;20028;-71
2023/11/05 08:17:07;;;;;;;5.70;0.85;;;11.00;99.90;;;;;;5076193;28;20036;-71
2023/11/05 08:19:32;;;;;;;3.20;0.60;;;11.00;99.90;;;;;;5078572;28;20418;-72
2023/11/05 08:21:58;;;;;;;9.65;0.80;;;11.00;99.90;;;;;;5093343;28;20032;-71
2023/11/05 08:24:24;;;;;;;7.85;0.90;;;11.10;99.90;;;;;;5068324;28;20039;-71
2023/11/05 08:26:49;;;;;;;9.23;0.95;;;11.10;99.90;;;;;;5085612;28;20051;-71
2023/11/05 08:29:15;;;;;;;7.60;0.82;;;11.10;99.90;;;;;;5089988;28;20071;-71
2023/11/05 08:31:42;;;;;;;7.95;1.02;;;11.20;99.90;;;;;;5084985;28;20062;-71
2023/11/05 08:34:08;;;;;;;9.10;0.93;;;11.20;99.90;;;;;;5085642;28;20131;-71
2023/11/05 08:36:34;;;;;;;11.93;1.23;;;11.20;99.90;;;;;;5090683;28;20107;-71
2023/11/05 08:39:01;;;;;;;7.35;1.35;;;11.20;99.90;;;;;;5076649;28;20554;-71
2023/11/05 08:41:26;;;;;;;4.75;0.80;;;11.30;99.90;;;;;;5079216;28;20043;-72
2023/11/05 08:43:52;;;;;;;7.07;1.10;;;11.30;99.90;;;;;;5075117;28;20024;-71
2023/11/05 08:46:18;;;;;;;7.18;0.82;;;11.40;99.90;;;;;;5075469;28;20023;-71
2023/11/05 08:48:43;;;;;;;10.73;1.85;;;11.40;99.90;;;;;;5080293;28;20051;-71
2023/11/05 08:51:09;;;;;;;8.20;1.20;;;11.50;99.90;;;;;;5077921;28;20474;-71
2023/11/05 08:53:34;;;;;;;8.98;1.67;;;11.60;99.90;;;;;;5085187;28;20027;-71
2023/11/05 08:56:00;;;;;;;8.80;1.35;;;11.60;99.90;;;;;;5088350;28;20056;-71
2023/11/05 08:58:26;;;;;;;16.65;1.88;;;11.70;99.90;;;;;;5091670;28;20379;-71
2023/11/05 09:00:55;;;;;;;10.50;1.75;;;11.70;99.90;;;;;;5083844;28;20024;-72
2023/11/05 09:03:23;;;;;;;7.97;1.48;;;11.80;99.90;;;;;;5077252;28;20031;-69
2023/11/05 09:05:48;;;;;;;6.05;1.45;;;11.80;99.90;;;;;;5074149;28;20060;-71
2023/11/05 09:08:14;;;;;;;8.27;1.52;;;11.80;99.90;;;;;;5082667;28;20067;-70
2023/11/05 09:10:40;;;;;;;8.65;1.63;;;11.80;99.90;;;;;;5081779;28;20024;-71
2023/11/05 09:13:05;;;;;;;8.85;2.58;;;11.80;99.90;;;;;;5078400;28;20029;-70
2023/11/05 09:15:31;;;;;;;9.45;1.80;;;11.80;99.90;;;;;;5083079;28;20032;-70
2023/11/05 09:17:57;;;;;;;7.43;1.63;;;11.80;99.90;;;;;;5070356;28;20484;-70
2023/11/05 09:20:23;;;;;;;8.95;1.95;;;11.80;99.90;;;;;;5083601;28;20063;-73
2023/11/05 09:22:49;;;;;;;11.73;1.80;;;11.70;99.90;;;;;;5081664;28;20065;-71
2023/11/05 09:25:15;;;;;;;8.32;1.90;;;11.70;99.90;;;;;;5093194;28;20079;-73
2023/11/05 09:27:42;;;;;;;10.23;2.00;;;11.70;99.90;;;;;;5054285;28;20114;-73
2023/11/05 09:30:11;;;;;;;12.07;2.38;;;11.70;99.90;;;;;;5078737;28;20122;-73
2023/11/05 09:32:42;;;;;;;6.53;2.50;;;11.80;99.90;;;;;;5097128;28;20082;-73
2023/11/05 09:35:12;;;;;;;6.68;2.33;;;11.90;99.90;;;;;;5085911;28;20031;-73
2023/11/05 09:37:43;;;;;;;8.35;2.40;;;11.80;99.90;;;;;;5082536;28;20066;-73
2023/11/05 09:40:12;;;;;;;11.88;2.53;;;11.90;99.90;;;;;;5087287;28;20120;-73
2023/11/05 09:43:06;;;;;;;8.55;2.38;;;11.90;99.90;;;;;;5088139;28;20387;-73
2023/11/05 09:45:33;;;;;;;8.90;2.53;;;11.80;99.90;;;;;;5084157;28;20024;-73
2023/11/05 09:48:05;;;;;;;7.93;2.78;;;11.80;99.90;;;;;;5070884;28;20092;-73
2023/11/05 09:50:35;;;;;;;8.52;3.42;;;11.80;99.90;;;;;;5083128;28;20047;-73
2023/11/05 09:53:15;;;;;;;10.50;2.67;;;11.90;99.90;;;;;;5086315;28;20032;-73
2023/11/05 09:55:45;;;;;;;10.63;3.72;;;11.80;99.90;;;;;;5088186;28;20039;-73
2023/11/05 09:58:14;;;;;;;10.90;3.22;;;11.90;99.90;;;;;;5083830;28;20515;-73
2023/11/05 10:00:40;;;;;;;6.68;2.60;;;11.80;99.90;;;;;;5061298;28;20101;-73
2023/11/05 10:03:10;;;;;;;8.77;2.22;;;11.80;99.90;;;;;;5066876;28;20020;-74
2023/11/05 10:05:37;;;;;;;5.32;2.55;;;11.80;99.90;;;;;;5070075;28;20547;-72
2023/11/05 10:08:06;;;;;;;11.52;2.90;;;11.80;99.90;;;;;;5068460;28;20106;-72
2023/11/05 10:10:34;;;;;;;8.85;3.17;;;11.80;99.90;;;;;;5087405;28;20027;-73
2023/11/05 10:13:00;;;;;;;13.93;3.60;;;11.70;99.90;;;;;;5086737;28;20012;-71
2023/11/05 10:15:26;;;;;;;10.52;3.65;;;11.60;99.90;;;;;;5077473;28;20028;-74
2023/11/05 10:17:55;;;;;;;15.23;3.92;;;11.50;99.90;;;;;;5093338;28;20036;-72
2023/11/05 10:20:23;;;;;;;10.50;3.80;;;11.50;99.90;;;;;;5067607;28;20060;-72
2023/11/05 10:23:06;;;;;;;9.60;3.30;;;11.50;99.90;;;;;;5080279;28;20032;-72
2023/11/05 10:25:32;;;;;;;11.55;4.00;;;11.50;99.90;;;;;;5083927;28;20428;-72
2023/11/05 10:27:58;;;;;;;11.30;4.25;;;11.40;99.90;;;;;;5081178;28;20040;-72
2023/11/05 10:30:25;;;;;;;13.25;4.55;;;11.40;99.90;;;;;;5073071;28;20020;-72
2023/11/05 10:32:52;;;;;;;11.00;4.60;;;11.40;99.90;;;;;;5054094;28;20037;-73
2023/11/05 10:35:19;;;;;;;9.98;4.38;;;11.40;99.90;;;;;;5088125;28;20035;-72
2023/11/05 10:37:49;;;;;;;12.70;4.65;;;11.30;99.90;;;;;;5074446;28;20040;-72
2023/11/05 10:40:16;;;;;;;11.10;4.60;;;11.30;99.90;;;;;;5073987;28;20028;-72
2023/11/05 10:42:51;;;;;;;16.02;4.47;;;11.30;99.90;;;;;;5081696;28;20035;-72
2023/11/05 10:45:18;;;;;;;7.38;4.53;;;11.30;99.90;;;;;;5066099;28;20020;-72
2023/11/05 10:47:50;;;;;;;9.35;4.60;;;11.30;99.90;;;;;;5079508;28;20081;-72
2023/11/05 10:50:23;;;;;;;8.82;5.10;;;11.30;99.90;;;;;;5068837;28;20112;-72
2023/11/05 10:52:51;;;;;;;8.20;4.40;;;11.30;99.90;;;;;;5071657;28;20107;-72
2023/11/05 10:55:16;;;;;;;8.05;4.35;;;11.40;99.90;;;;;;5070433;28;20061;-72
2023/11/05 10:57:43;;;;;;;8.95;3.92;;;11.40;99.90;;;;;;5061826;28;20049;-72
2023/11/05 11:00:32;;;;;;;9.80;3.95;;;11.40;99.90;;;;;;5090583;28;20024;-72
2023/11/05 11:03:10;;;;;;;13.20;4.82;;;11.30;99.90;;;;;;5021832;28;20036;-72
2023/11/05 11:05:42;;;;;;;13.85;4.32;;;11.30;99.90;;;;;;5068564;28;20065;-72
2023/11/05 11:08:12;;;;;;;13.73;4.15;;;11.30;99.90;;;;;;5074935;28;20048;-72
2023/11/05 11:10:40;;;;;;;13.98;4.82;;;11.20;99.90;;;;;;5064354;28;20028;-72
2023/11/05 11:13:13;;;;;;;13.90;4.07;;;11.20;99.90;;;;;;5094090;28;20028;-72
2023/11/05 11:15:39;;;;;;;11.98;4.25;;;11.20;99.90;;;;;;5091496;28;20035;-73
2023/11/05 11:18:14;;;;;;;18.85;4.00;;;11.20;99.90;;;;;;5071208;28;20068;-72
2023/11/05 11:20:42;;;;;;;10.63;3.00;;;11.20;99.90;;;;;;5076725;28;20388;-72
2023/11/05 11:23:14;;;;;;;9.75;3.33;;;11.30;99.90;;;;;;5086284;28;20068;-72
2023/11/05 11:26:05;;;;;;;11.30;2.60;;;11.30;99.90;;;;;;5088359;28;20497;-72
2023/11/05 11:28:32;;;;;;;12.05;2.90;;;11.40;99.90;;;;;;5075145;28;20582;-72
2023/11/05 11:30:58;;;;;;;14.23;2.55;;;11.50;99.90;;;;;;5081140;28;20162;-72
2023/11/05 11:33:25;;;;;;;13.52;2.47;;;11.70;99.90;;;;;;5085748;28;20095;-72
2023/11/05 11:35:50;;;;;;;12.50;2.20;;;11.80;99.90;;;;;;5088272;28;20128;-72
2023/11/05 11:38:16;;;;;;;10.10;2.92;;;12.10;99.90;;;;;;5077324;28;20028;-72
2023/11/05 11:40:55;;;;;;;9.60;1.92;;;12.30;99.90;;;;;;5093198;28;20879;-72
2023/11/05 11:43:22;;;;;;;7.18;1.20;;;12.50;99.90;;;;;;5078114;28;20074;-72
2023/11/05 11:45:48;;;;;;;5.35;1.15;;;12.60;99.90;;;;;;5083177;28;20115;-72
2023/11/05 11:48:18;;;;;;;5.70;0.90;;;12.70;99.90;;;;;;5078234;28;20020;-72
2023/11/05 11:50:55;;;;;;;6.55;0.98;;;12.80;99.90;;;;;;5083462;28;20028;-75
2023/11/05 11:53:30;;;;;;;4.90;0.90;;;12.90;99.90;;;;;;5088900;28;20103;-73
2023/11/05 11:55:57;;;;;;;8.68;0.70;;;12.90;99.90;;;;;;5087711;28;20025;-73
2023/11/05 11:58:24;;;;;;;3.97;0.50;;;12.90;99.90;;;;;;5085511;28;20044;-73
2023/11/05 12:00:56;;;;;;;4.13;0.63;;;12.80;99.90;;;;;;5066028;28;20028;-73
2023/11/05 12:03:24;;;;;;;7.05;0.80;;;12.70;99.90;;;;;;5060872;28;20508;-73
2023/11/05 12:05:50;;;;;;;4.13;0.50;;;12.60;99.90;;;;;;5071377;28;20075;-73
2023/11/05 12:08:37;;;;;;;6.00;1.00;;;12.50;99.90;;;;;;5071791;28;20463;-73
2023/11/05 12:11:22;;;;;;;5.20;0.80;;;12.50;99.90;;;;;;5071033;28;20031;-74
2023/11/05 12:13:48;;;;;;;2.65;0.70;;;12.50;99.90;;;;;;5093655;28;20454;-72
2023/11/05 12:16:17;;;;;;;5.13;0.90;;;12.40;99.90;;;;;;5082071;28;20043;-73
2023/11/05 12:18:44;;;;;;;3.92;0.82;;;12.30;99.90;;;;;;5082741;28;20513;-72
2023/11/05 12:21:12;;;;;;;8.07;1.23;;;12.30;99.90;;;;;;5059976;28;20027;-73
2023/11/05 12:23:39;;;;;;;4.22;0.70;;;12.20;99.90;;;;;;5063682;28;20103;-72
2023/11/05 12:26:08;;;;;;;6.88;0.90;;;12.20;99.90;;;;;;5080497;28;20017;-72
2023/11/05 12:28:34;;;;;;;5.75;0.80;;;12.20;99.90;;;;;;5063429;28;20514;-72
2023/11/05 12:31:04;;;;;;;7.03;0.90;;;12.20;99.90;;;;;;5074334;28;20092;-73
2023/11/05 12:33:37;;;;;;;3.85;0.60;;;12.20;99.90;;;;;;5095150;28;20035;-72
2023/11/05 12:36:04;;;;;;;6.72;1.45;;;12.10;99.90;;;;;;5086683;28;20031;-73
2023/11/05 12:38:30;;;;;;;6.22;1.02;;;12.10;99.90;;;;;;5066087;28;20105;-72
2023/11/05 12:40:56;;;;;;;4.18;1.02;;;12.10;99.90;;;;;;5090412;28;20036;-72
2023/11/05 12:43:23;;;;;;;4.53;1.10;;;12.00;99.90;;;;;;5075458;28;20098;-73
2023/11/05 12:45:55;;;;;;;5.55;1.05;;;12.00;99.90;;;;;;5076516;28;20410;-73
2023/11/05 12:48:24;;;;;;;6.10;0.95;;;12.00;99.90;;;;;;5078735;28;20028;-71
2023/11/05 12:50:51;;;;;;;5.20;0.93;;;12.00;99.90;;;;;;5072137;28;20050;-71
2023/11/05 12:53:17;;;;;;;4.90;1.10;;;12.00;99.90;;;;;;5078333;28;20029;-71
2023/11/05 12:55:44;;;;;;;3.63;0.80;;;12.00;99.90;;;;;;5071481;28;20054;-71
2023/11/05 12:58:10;;;;;;;2.00;0.60;;;12.00;99.90;;;;;;5076015;28;20111;-71